sensor_id;sensor_type;location;lat;lon;timestamp;temperature;humidity
9323;DHT22;4700;48.822;9.270;2022-12-05T00:00:55;3.80;1.00
9323;DHT22;4700;48.822;9.270;2022-12-05T00:06:22;3.80;1.00
9323;DHT22;4700;48.822;9.270;2022-12-05T00:16:49;3.80;1.00
9323;DHT22;4700;48.822;9.270;2022-12-05T00:19:36;3.70;1.00
9323;DHT22;4700;48.822;9.270;2022-12-05T00:22:24;3.80;1.00
9323;DHT22;4700;48.822;9.270;2022-12-05T00:25:11;3.80;1.00
9323;DHT22;4700;48.822;9.270;2022-12-05T00:28:00;3.80;1.00
9323;DHT22;4700;48.822;9.270;2022-12-05T00:30:48;3.80;1.00
9323;DHT22;4700;48.822;9.270;2022-12-05T00:33:34;3.80;1.00
9323;DHT22;4700;48.822;9.270;2022-12-05T00:36:23;3.80;1.00
9323;DHT22;4700;48.822;9.270;2022-12-05T00:39:12;3.80;1.00
9323;DHT22;4700;48.822;9.270;2022-12-05T00:42:00;3.90;1.00
9323;DHT22;4700;48.822;9.270;2022-12-05T00:44:49;3.90;1.00
9323;DHT22;4700;48.822;9.270;2022-12-05T00:47:35;3.80;1.00
9323;DHT22;4700;48.822;9.270;2022-12-05T00:50:22;3.80;1.00
9323;DHT22;4700;48.822;9.270;2022-12-05T00:53:09;3.80;1.00
9323;DHT22;4700;48.822;9.270;2022-12-05T00:56:04;3.80;1.00
9323;DHT22;4700;48.822;9.270;2022-12-05T00:58:52;3.90;1.00
9323;DHT22;4700;48.822;9.270;2022-12-05T01:01:40;3.80;1.00
9323;DHT22;4700;48.822;9.270;2022-12-05T01:04:28;3.90;1.00
9323;DHT22;4700;48.822;9.270;2022-12-05T01:07:17;3.80;1.00
9323;DHT22;4700;48.822;9.270;2022-12-05T01:10:04;3.80;1.00
9323;DHT22;4700;48.822;9.270;2022-12-05T01:12:52;3.80;1.00
9323;DHT22;4700;48.822;9.270;2022-12-05T01:15:39;3.80;1.00
9323;DHT22;4700;48.822;9.270;2022-12-05T01:18:26;3.80;1.00
9323;DHT22;4700;48.822;9.270;2022-12-05T01:21:13;3.80;1.00
9323;DHT22;4700;48.822;9.270;2022-12-05T01:24:00;3.80;1.00
9323;DHT22;4700;48.822;9.270;2022-12-05T01:26:47;3.80;1.00
9323;DHT22;4700;48.822;9.270;2022-12-05T01:29:34;3.80;1.00
9323;DHT22;4700;48.822;9.270;2022-12-05T01:32:20;3.80;1.00
9323;DHT22;4700;48.822;9.270;2022-12-05T01:37:42;3.80;1.00
9323;DHT22;4700;48.822;9.270;2022-12-05T01:40:30;3.80;1.00
9323;DHT22;4700;48.822;9.270;2022-12-05T01:43:19;3.80;1.00
9323;DHT22;4700;48.822;9.270;2022-12-05T01:46:08;3.80;1.00
9323;DHT22;4700;48.822;9.270;2022-12-05T01:49:01;3.80;1.00
9323;DHT22;4700;48.822;9.270;2022-12-05T01:51:51;3.80;1.00
9323;DHT22;4700;48.822;9.270;2022-12-05T01:54:37;3.70;1.00
9323;DHT22;4700;48.822;9.270;2022-12-05T01:57:24;3.70;1.00
9323;DHT22;4700;48.822;9.270;2022-12-05T02:00:14;3.80;1.00
9323;DHT22;4700;48.822;9.270;2022-12-05T02:03:13;3.80;1.00
9323;DHT22;4700;48.822;9.270;2022-12-05T02:06:02;3.90;1.00
9323;DHT22;4700;48.822;9.270;2022-12-05T02:08:53;3.80;1.00
9323;DHT22;4700;48.822;9.270;2022-12-05T02:11:45;3.80;1.00
9323;DHT22;4700;48.822;9.270;2022-12-05T02:14:39;3.80;1.00
9323;DHT22;4700;48.822;9.270;2022-12-05T02:17:37;3.90;1.00
9323;DHT22;4700;48.822;9.270;2022-12-05T02:20:47;3.80;1.00
9323;DHT22;4700;48.822;9.270;2022-12-05T02:23:54;3.80;1.00
9323;DHT22;4700;48.822;9.270;2022-12-05T02:26:58;3.80;1.00
9323;DHT22;4700;48.822;9.270;2022-12-05T02:29:59;3.80;1.00
9323;DHT22;4700;48.822;9.270;2022-12-05T02:33:02;3.80;1.00
9323;DHT22;4700;48.822;9.270;2022-12-05T02:38:26;3.80;1.00
9323;DHT22;4700;48.822;9.270;2022-12-05T02:41:20;3.80;1.00
9323;DHT22;4700;48.822;9.270;2022-12-05T02:44:10;3.80;1.00
9323;DHT22;4700;48.822;9.270;2022-12-05T02:47:02;3.80;1.00
9323;DHT22;4700;48.822;9.270;2022-12-05T02:49:51;3.80;1.00
9323;DHT22;4700;48.822;9.270;2022-12-05T02:52:40;3.80;1.00
9323;DHT22;4700;48.822;9.270;2022-12-05T02:55:29;3.80;1.00
9323;DHT22;4700;48.822;9.270;2022-12-05T02:58:21;3.80;1.00
9323;DHT22;4700;48.822;9.270;2022-12-05T03:01:11;3.80;1.00
9323;DHT22;4700;48.822;9.270;2022-12-05T03:04:01;3.80;1.00
9323;DHT22;4700;48.822;9.270;2022-12-05T03:06:51;3.80;1.00
9323;DHT22;4700;48.822;9.270;2022-12-05T03:12:18;3.70;1.00
9323;DHT22;4700;48.822;9.270;2022-12-05T03:15:10;3.70;1.00
9323;DHT22;4700;48.822;9.270;2022-12-05T03:18:02;3.70;1.00
9323;DHT22;4700;48.822;9.270;2022-12-05T03:21:01;3.80;1.00
9323;DHT22;4700;48.822;9.270;2022-12-05T03:23:50;3.80;1.00
9323;DHT22;4700;48.822;9.270;2022-12-05T03:26:49;3.80;1.00
9323;DHT22;4700;48.822;9.270;2022-12-05T03:29:38;3.70;1.00
9323;DHT22;4700;48.822;9.270;2022-12-05T03:32:32;3.60;1.00
9323;DHT22;4700;48.822;9.270;2022-12-05T03:35:23;3.50;1.00
9323;DHT22;4700;48.822;9.270;2022-12-05T03:38:17;3.50;1.00
9323;DHT22;4700;48.822;9.270;2022-12-05T03:41:12;3.50;1.00
9323;DHT22;4700;48.822;9.270;2022-12-05T03:44:03;3.50;1.00
9323;DHT22;4700;48.822;9.270;2022-12-05T03:46:53;3.60;1.00
9323;DHT22;4700;48.822;9.270;2022-12-05T03:49:53;3.60;1.00
9323;DHT22;4700;48.822;9.270;2022-12-05T03:52:45;3.60;1.00
9323;DHT22;4700;48.822;9.270;2022-12-05T03:55:35;3.70;1.00
9323;DHT22;4700;48.822;9.270;2022-12-05T03:58:29;3.70;1.00
9323;DHT22;4700;48.822;9.270;2022-12-05T04:01:17;3.40;1.00
9323;DHT22;4700;48.822;9.270;2022-12-05T04:04:09;3.80;1.00
9323;DHT22;4700;48.822;9.270;2022-12-05T04:07:01;3.90;1.00
9323;DHT22;4700;48.822;9.270;2022-12-05T04:09:51;4.20;1.00
9323;DHT22;4700;48.822;9.270;2022-12-05T04:12:42;3.90;1.00
9323;DHT22;4700;48.822;9.270;2022-12-05T04:15:31;3.90;1.00
9323;DHT22;4700;48.822;9.270;2022-12-05T04:18:40;3.90;1.00
9323;DHT22;4700;48.822;9.270;2022-12-05T04:21:31;3.90;1.00
9323;DHT22;4700;48.822;9.270;2022-12-05T04:24:27;4.00;1.00
9323;DHT22;4700;48.822;9.270;2022-12-05T04:27:37;3.90;1.00
9323;DHT22;4700;48.822;9.270;2022-12-05T04:30:33;3.80;1.00
9323;DHT22;4700;48.822;9.270;2022-12-05T04:33:25;3.80;1.00
9323;DHT22;4700;48.822;9.270;2022-12-05T04:36:16;3.80;1.00
9323;DHT22;4700;48.822;9.270;2022-12-05T04:39:06;3.80;1.00
9323;DHT22;4700;48.822;9.270;2022-12-05T04:41:56;3.80;1.00
9323;DHT22;4700;48.822;9.270;2022-12-05T04:44:47;3.80;1.00
9323;DHT22;4700;48.822;9.270;2022-12-05T04:47:41;3.90;1.00
9323;DHT22;4700;48.822;9.270;2022-12-05T04:50:32;3.90;1.00
9323;DHT22;4700;48.822;9.270;2022-12-05T04:53:20;3.90;1.00
9323;DHT22;4700;48.822;9.270;2022-12-05T04:56:08;3.90;1.00
9323;DHT22;4700;48.822;9.270;2022-12-05T04:58:56;3.80;1.00
9323;DHT22;4700;48.822;9.270;2022-12-05T05:01:45;3.90;1.00
9323;DHT22;4700;48.822;9.270;2022-12-05T05:04:38;4.00;1.00
9323;DHT22;4700;48.822;9.270;2022-12-05T05:07:27;3.80;1.00
9323;DHT22;4700;48.822;9.270;2022-12-05T05:10:16;3.80;1.00
9323;DHT22;4700;48.822;9.270;2022-12-05T05:13:04;3.80;1.00
9323;DHT22;4700;48.822;9.270;2022-12-05T05:15:52;3.80;1.00
9323;DHT22;4700;48.822;9.270;2022-12-05T05:18:38;3.80;1.00
9323;DHT22;4700;48.822;9.270;2022-12-05T05:21:29;3.80;1.00
9323;DHT22;4700;48.822;9.270;2022-12-05T05:24:15;4.20;1.00
9323;DHT22;4700;48.822;9.270;2022-12-05T05:27:01;3.80;1.00
9323;DHT22;4700;48.822;9.270;2022-12-05T05:29:47;3.70;1.00
9323;DHT22;4700;48.822;9.270;2022-12-05T05:32:34;3.80;1.00
9323;DHT22;4700;48.822;9.270;2022-12-05T05:35:21;3.80;1.00
9323;DHT22;4700;48.822;9.270;2022-12-05T05:38:10;3.90;1.00
9323;DHT22;4700;48.822;9.270;2022-12-05T05:40:56;3.80;1.00
9323;DHT22;4700;48.822;9.270;2022-12-05T05:43:42;3.70;1.00
9323;DHT22;4700;48.822;9.270;2022-12-05T05:46:31;3.70;1.00
9323;DHT22;4700;48.822;9.270;2022-12-05T05:49:17;3.80;1.00
9323;DHT22;4700;48.822;9.270;2022-12-05T05:52:03;3.80;1.00
9323;DHT22;4700;48.822;9.270;2022-12-05T05:54:50;4.00;1.00
9323;DHT22;4700;48.822;9.270;2022-12-05T05:57:37;4.10;1.00
9323;DHT22;4700;48.822;9.270;2022-12-05T06:00:24;4.20;1.00
9323;DHT22;4700;48.822;9.270;2022-12-05T06:03:10;4.30;1.00
9323;DHT22;4700;48.822;9.270;2022-12-05T06:05:58;4.30;1.00
9323;DHT22;4700;48.822;9.270;2022-12-05T06:08:44;4.30;1.00
9323;DHT22;4700;48.822;9.270;2022-12-05T06:11:32;4.30;1.00
9323;DHT22;4700;48.822;9.270;2022-12-05T06:14:19;4.30;1.00
9323;DHT22;4700;48.822;9.270;2022-12-05T06:17:05;4.30;1.00
9323;DHT22;4700;48.822;9.270;2022-12-05T06:19:51;4.30;1.00
9323;DHT22;4700;48.822;9.270;2022-12-05T06:22:37;4.40;1.00
9323;DHT22;4700;48.822;9.270;2022-12-05T06:25:23;4.40;1.00
9323;DHT22;4700;48.822;9.270;2022-12-05T06:28:10;4.40;1.00
9323;DHT22;4700;48.822;9.270;2022-12-05T06:30:56;4.40;1.00
9323;DHT22;4700;48.822;9.270;2022-12-05T06:33:43;4.40;1.00
9323;DHT22;4700;48.822;9.270;2022-12-05T06:36:30;4.30;1.00
9323;DHT22;4700;48.822;9.270;2022-12-05T06:41:49;4.10;1.00
9323;DHT22;4700;48.822;9.270;2022-12-05T06:44:37;4.10;1.00
9323;DHT22;4700;48.822;9.270;2022-12-05T06:47:24;4.20;1.00
9323;DHT22;4700;48.822;9.270;2022-12-05T06:50:10;4.20;1.00
9323;DHT22;4700;48.822;9.270;2022-12-05T06:52:56;4.40;1.00
9323;DHT22;4700;48.822;9.270;2022-12-05T06:55:42;4.50;1.00
9323;DHT22;4700;48.822;9.270;2022-12-05T06:58:29;4.50;1.00
9323;DHT22;4700;48.822;9.270;2022-12-05T07:01:18;4.50;1.00
9323;DHT22;4700;48.822;9.270;2022-12-05T07:04:23;4.60;1.00
9323;DHT22;4700;48.822;9.270;2022-12-05T07:07:09;4.60;1.00
9323;DHT22;4700;48.822;9.270;2022-12-05T07:09:56;4.60;1.00
9323;DHT22;4700;48.822;9.270;2022-12-05T07:12:44;4.60;1.00
9323;DHT22;4700;48.822;9.270;2022-12-05T07:15:37;4.60;1.00
9323;DHT22;4700;48.822;9.270;2022-12-05T07:18:26;4.60;1.00
9323;DHT22;4700;48.822;9.270;2022-12-05T07:21:13;4.60;1.00
9323;DHT22;4700;48.822;9.270;2022-12-05T07:23:59;4.60;1.00
9323;DHT22;4700;48.822;9.270;2022-12-05T07:26:45;4.70;1.00
9323;DHT22;4700;48.822;9.270;2022-12-05T07:29:32;4.70;1.00
9323;DHT22;4700;48.822;9.270;2022-12-05T07:32:17;4.80;1.00
9323;DHT22;4700;48.822;9.270;2022-12-05T07:35:05;4.80;1.00
9323;DHT22;4700;48.822;9.270;2022-12-05T07:37:52;4.80;1.00
9323;DHT22;4700;48.822;9.270;2022-12-05T07:40:38;4.90;1.00
9323;DHT22;4700;48.822;9.270;2022-12-05T07:43:23;5.00;1.00
9323;DHT22;4700;48.822;9.270;2022-12-05T07:46:10;5.00;1.00
9323;DHT22;4700;48.822;9.270;2022-12-05T07:48:58;5.10;1.00
9323;DHT22;4700;48.822;9.270;2022-12-05T07:51:46;5.30;1.00
9323;DHT22;4700;48.822;9.270;2022-12-05T07:54:35;5.30;1.00
9323;DHT22;4700;48.822;9.270;2022-12-05T07:57:20;5.10;1.00
9323;DHT22;4700;48.822;9.270;2022-12-05T08:00:07;5.10;1.00
9323;DHT22;4700;48.822;9.270;2022-12-05T08:02:53;5.10;1.00
9323;DHT22;4700;48.822;9.270;2022-12-05T08:05:39;5.10;1.00
9323;DHT22;4700;48.822;9.270;2022-12-05T08:08:26;5.10;1.00
9323;DHT22;4700;48.822;9.270;2022-12-05T08:11:14;5.10;1.00
9323;DHT22;4700;48.822;9.270;2022-12-05T08:14:01;4.90;1.00
9323;DHT22;4700;48.822;9.270;2022-12-05T08:16:48;4.70;1.00
9323;DHT22;4700;48.822;9.270;2022-12-05T08:19:33;4.90;1.00
9323;DHT22;4700;48.822;9.270;2022-12-05T08:22:19;5.10;1.00
9323;DHT22;4700;48.822;9.270;2022-12-05T08:25:07;5.20;1.00
9323;DHT22;4700;48.822;9.270;2022-12-05T08:27:53;5.30;1.00
9323;DHT22;4700;48.822;9.270;2022-12-05T08:30:40;5.50;1.00
9323;DHT22;4700;48.822;9.270;2022-12-05T08:33:26;5.60;1.00
9323;DHT22;4700;48.822;9.270;2022-12-05T08:36:17;5.80;1.00
9323;DHT22;4700;48.822;9.270;2022-12-05T08:39:05;5.90;1.00
9323;DHT22;4700;48.822;9.270;2022-12-05T08:41:52;6.00;1.00
9323;DHT22;4700;48.822;9.270;2022-12-05T08:44:38;6.10;1.00
9323;DHT22;4700;48.822;9.270;2022-12-05T08:47:24;6.00;1.00
9323;DHT22;4700;48.822;9.270;2022-12-05T08:50:10;5.90;1.00
9323;DHT22;4700;48.822;9.270;2022-12-05T08:52:58;5.90;1.00
9323;DHT22;4700;48.822;9.270;2022-12-05T08:55:44;6.00;1.00
9323;DHT22;4700;48.822;9.270;2022-12-05T08:58:32;6.10;1.00
9323;DHT22;4700;48.822;9.270;2022-12-05T09:01:20;6.00;1.00
9323;DHT22;4700;48.822;9.270;2022-12-05T09:04:06;6.10;1.00
9323;DHT22;4700;48.822;9.270;2022-12-05T09:06:52;6.10;1.00
9323;DHT22;4700;48.822;9.270;2022-12-05T09:09:37;6.20;1.00
9323;DHT22;4700;48.822;9.270;2022-12-05T09:12:23;6.20;1.00
9323;DHT22;4700;48.822;9.270;2022-12-05T09:15:11;6.30;1.00
9323;DHT22;4700;48.822;9.270;2022-12-05T09:17:59;6.30;1.00
9323;DHT22;4700;48.822;9.270;2022-12-05T09:20:49;6.30;1.00
9323;DHT22;4700;48.822;9.270;2022-12-05T09:23:34;6.40;1.00
9323;DHT22;4700;48.822;9.270;2022-12-05T09:26:23;6.50;1.00
9323;DHT22;4700;48.822;9.270;2022-12-05T09:29:10;6.50;1.00
9323;DHT22;4700;48.822;9.270;2022-12-05T09:31:58;6.60;1.00
9323;DHT22;4700;48.822;9.270;2022-12-05T09:34:43;6.60;1.00
9323;DHT22;4700;48.822;9.270;2022-12-05T09:37:29;6.50;1.00
9323;DHT22;4700;48.822;9.270;2022-12-05T09:40:16;6.60;1.00
9323;DHT22;4700;48.822;9.270;2022-12-05T09:43:05;6.70;1.00
9323;DHT22;4700;48.822;9.270;2022-12-05T09:45:55;6.70;1.00
9323;DHT22;4700;48.822;9.270;2022-12-05T09:48:46;6.80;1.00
9323;DHT22;4700;48.822;9.270;2022-12-05T09:51:31;6.90;1.00
9323;DHT22;4700;48.822;9.270;2022-12-05T09:54:11;6.90;1.00
9323;DHT22;4700;48.822;9.270;2022-12-05T09:56:58;7.00;1.00
9323;DHT22;4700;48.822;9.270;2022-12-05T09:59:44;7.10;1.00
9323;DHT22;4700;48.822;9.270;2022-12-05T10:02:39;7.20;1.00
9323;DHT22;4700;48.822;9.270;2022-12-05T10:05:38;7.30;1.00
9323;DHT22;4700;48.822;9.270;2022-12-05T10:08:30;7.20;1.00
9323;DHT22;4700;48.822;9.270;2022-12-05T10:11:21;7.10;1.00
9323;DHT22;4700;48.822;9.270;2022-12-05T10:14:12;7.00;1.00
9323;DHT22;4700;48.822;9.270;2022-12-05T10:17:08;6.90;1.00
9323;DHT22;4700;48.822;9.270;2022-12-05T10:19:58;6.80;1.00
9323;DHT22;4700;48.822;9.270;2022-12-05T10:22:49;6.70;1.00
9323;DHT22;4700;48.822;9.270;2022-12-05T10:25:38;6.70;1.00
9323;DHT22;4700;48.822;9.270;2022-12-05T10:28:28;6.60;1.00
9323;DHT22;4700;48.822;9.270;2022-12-05T10:31:20;6.60;1.00
9323;DHT22;4700;48.822;9.270;2022-12-05T10:34:15;6.50;1.00
9323;DHT22;4700;48.822;9.270;2022-12-05T10:37:09;6.50;1.00
9323;DHT22;4700;48.822;9.270;2022-12-05T10:39:57;6.50;1.00
9323;DHT22;4700;48.822;9.270;2022-12-05T10:42:43;6.50;1.00
9323;DHT22;4700;48.822;9.270;2022-12-05T10:45:29;6.50;1.00
9323;DHT22;4700;48.822;9.270;2022-12-05T10:48:17;6.70;1.00
9323;DHT22;4700;48.822;9.270;2022-12-05T10:51:04;6.90;1.00
9323;DHT22;4700;48.822;9.270;2022-12-05T10:53:51;7.10;1.00
9323;DHT22;4700;48.822;9.270;2022-12-05T10:56:44;7.20;1.00
9323;DHT22;4700;48.822;9.270;2022-12-05T10:59:44;7.40;1.00
9323;DHT22;4700;48.822;9.270;2022-12-05T11:02:31;7.40;1.00
9323;DHT22;4700;48.822;9.270;2022-12-05T11:05:27;7.40;1.00
9323;DHT22;4700;48.822;9.270;2022-12-05T11:08:21;7.40;1.00
9323;DHT22;4700;48.822;9.270;2022-12-05T11:11:17;7.40;1.00
9323;DHT22;4700;48.822;9.270;2022-12-05T11:14:06;7.40;1.00
9323;DHT22;4700;48.822;9.270;2022-12-05T11:17:04;7.50;1.00
9323;DHT22;4700;48.822;9.270;2022-12-05T11:19:50;7.60;1.00
9323;DHT22;4700;48.822;9.270;2022-12-05T11:22:37;7.70;1.00
9323;DHT22;4700;48.822;9.270;2022-12-05T11:25:27;7.70;1.00
9323;DHT22;4700;48.822;9.270;2022-12-05T11:28:29;7.70;1.00
9323;DHT22;4700;48.822;9.270;2022-12-05T11:31:28;7.70;1.00
9323;DHT22;4700;48.822;9.270;2022-12-05T11:34:19;7.80;1.00
9323;DHT22;4700;48.822;9.270;2022-12-05T11:37:11;8.00;1.00
9323;DHT22;4700;48.822;9.270;2022-12-05T11:39:59;8.40;1.00
9323;DHT22;4700;48.822;9.270;2022-12-05T11:43:07;8.70;1.00
9323;DHT22;4700;48.822;9.270;2022-12-05T11:46:03;8.90;1.00
9323;DHT22;4700;48.822;9.270;2022-12-05T11:49:13;8.90;1.00
9323;DHT22;4700;48.822;9.270;2022-12-05T11:54:43;8.90;1.00
9323;DHT22;4700;48.822;9.270;2022-12-05T11:57:54;8.90;1.00
9323;DHT22;4700;48.822;9.270;2022-12-05T12:00:50;8.90;1.00
9323;DHT22;4700;48.822;9.270;2022-12-05T12:04:04;8.70;1.00
9323;DHT22;4700;48.822;9.270;2022-12-05T12:07:10;8.50;1.00
9323;DHT22;4700;48.822;9.270;2022-12-05T12:10:12;8.10;1.00
9323;DHT22;4700;48.822;9.270;2022-12-05T12:13:12;8.00;1.00
9323;DHT22;4700;48.822;9.270;2022-12-05T12:16:11;7.90;1.00
9323;DHT22;4700;48.822;9.270;2022-12-05T12:19:31;8.00;1.00
9323;DHT22;4700;48.822;9.270;2022-12-05T12:22:37;7.90;1.00
9323;DHT22;4700;48.822;9.270;2022-12-05T12:25:37;7.90;1.00
9323;DHT22;4700;48.822;9.270;2022-12-05T12:28:31;7.80;1.00
9323;DHT22;4700;48.822;9.270;2022-12-05T12:31:35;7.70;1.00
9323;DHT22;4700;48.822;9.270;2022-12-05T12:35:04;7.70;1.00
9323;DHT22;4700;48.822;9.270;2022-12-05T12:38:18;7.90;1.00
9323;DHT22;4700;48.822;9.270;2022-12-05T12:41:13;7.90;1.00
9323;DHT22;4700;48.822;9.270;2022-12-05T12:44:07;7.90;1.00
9323;DHT22;4700;48.822;9.270;2022-12-05T12:47:00;7.90;1.00
9323;DHT22;4700;48.822;9.270;2022-12-05T12:49:56;7.90;1.00
9323;DHT22;4700;48.822;9.270;2022-12-05T12:53:07;7.90;1.00
9323;DHT22;4700;48.822;9.270;2022-12-05T12:56:03;8.00;1.00
9323;DHT22;4700;48.822;9.270;2022-12-05T12:58:58;7.80;1.00
9323;DHT22;4700;48.822;9.270;2022-12-05T13:01:51;7.90;1.00
9323;DHT22;4700;48.822;9.270;2022-12-05T13:04:46;8.00;1.00
9323;DHT22;4700;48.822;9.270;2022-12-05T13:07:36;8.00;1.00
9323;DHT22;4700;48.822;9.270;2022-12-05T13:10:27;8.10;1.00
9323;DHT22;4700;48.822;9.270;2022-12-05T13:13:21;8.10;1.00
9323;DHT22;4700;48.822;9.270;2022-12-05T13:16:09;8.00;1.00
9323;DHT22;4700;48.822;9.270;2022-12-05T13:18:57;8.00;1.00
9323;DHT22;4700;48.822;9.270;2022-12-05T13:21:43;7.80;1.00
9323;DHT22;4700;48.822;9.270;2022-12-05T13:24:29;7.90;1.00
9323;DHT22;4700;48.822;9.270;2022-12-05T13:27:19;7.90;1.00
9323;DHT22;4700;48.822;9.270;2022-12-05T13:30:14;7.60;1.00
9323;DHT22;4700;48.822;9.270;2022-12-05T13:33:06;7.60;1.00
9323;DHT22;4700;48.822;9.270;2022-12-05T13:35:55;7.50;1.00
9323;DHT22;4700;48.822;9.270;2022-12-05T13:39:01;7.40;1.00
9323;DHT22;4700;48.822;9.270;2022-12-05T13:42:05;7.30;1.00
9323;DHT22;4700;48.822;9.270;2022-12-05T13:45:08;7.10;1.00
9323;DHT22;4700;48.822;9.270;2022-12-05T13:48:17;7.10;1.00
9323;DHT22;4700;48.822;9.270;2022-12-05T13:51:08;7.00;1.00
9323;DHT22;4700;48.822;9.270;2022-12-05T13:53:59;6.90;1.00
9323;DHT22;4700;48.822;9.270;2022-12-05T13:56:52;6.80;1.00
9323;DHT22;4700;48.822;9.270;2022-12-05T14:00:03;6.70;1.00
9323;DHT22;4700;48.822;9.270;2022-12-05T14:02:56;6.60;1.00
9323;DHT22;4700;48.822;9.270;2022-12-05T14:05:51;6.60;1.00
9323;DHT22;4700;48.822;9.270;2022-12-05T14:08:52;6.40;1.00
9323;DHT22;4700;48.822;9.270;2022-12-05T14:11:39;6.40;1.00
9323;DHT22;4700;48.822;9.270;2022-12-05T14:14:58;6.40;1.00
9323;DHT22;4700;48.822;9.270;2022-12-05T14:17:45;6.20;1.00
9323;DHT22;4700;48.822;9.270;2022-12-05T14:21:02;6.10;1.00
9323;DHT22;4700;48.822;9.270;2022-12-05T14:24:02;6.30;1.00
9323;DHT22;4700;48.822;9.270;2022-12-05T14:26:57;6.30;1.00
9323;DHT22;4700;48.822;9.270;2022-12-05T14:29:58;6.10;1.00
9323;DHT22;4700;48.822;9.270;2022-12-05T14:32:45;6.00;1.00
9323;DHT22;4700;48.822;9.270;2022-12-05T14:35:40;6.10;1.00
9323;DHT22;4700;48.822;9.270;2022-12-05T14:38:32;5.90;1.00
9323;DHT22;4700;48.822;9.270;2022-12-05T14:41:24;6.00;1.00
9323;DHT22;4700;48.822;9.270;2022-12-05T14:44:17;6.10;1.00
9323;DHT22;4700;48.822;9.270;2022-12-05T14:47:05;6.10;1.00
9323;DHT22;4700;48.822;9.270;2022-12-05T14:49:54;6.20;1.00
9323;DHT22;4700;48.822;9.270;2022-12-05T14:52:41;6.20;1.00
9323;DHT22;4700;48.822;9.270;2022-12-05T14:55:12;6.10;1.00
9323;DHT22;4700;48.822;9.270;2022-12-05T14:58:02;5.90;1.00
9323;DHT22;4700;48.822;9.270;2022-12-05T15:00:55;5.90;1.00
9323;DHT22;4700;48.822;9.270;2022-12-05T15:04:07;5.80;1.00
9323;DHT22;4700;48.822;9.270;2022-12-05T15:06:59;5.70;1.00
9323;DHT22;4700;48.822;9.270;2022-12-05T15:09:55;5.70;1.00
9323;DHT22;4700;48.822;9.270;2022-12-05T15:12:46;5.80;1.00
9323;DHT22;4700;48.822;9.270;2022-12-05T15:15:40;5.90;1.00
9323;DHT22;4700;48.822;9.270;2022-12-05T15:18:30;5.90;1.00
9323;DHT22;4700;48.822;9.270;2022-12-05T15:21:22;6.00;1.00
9323;DHT22;4700;48.822;9.270;2022-12-05T15:24:12;5.90;1.00
9323;DHT22;4700;48.822;9.270;2022-12-05T15:27:01;5.90;1.00
9323;DHT22;4700;48.822;9.270;2022-12-05T15:29:52;6.00;1.00
9323;DHT22;4700;48.822;9.270;2022-12-05T15:32:40;5.90;1.00
9323;DHT22;4700;48.822;9.270;2022-12-05T15:35:29;5.80;1.00
9323;DHT22;4700;48.822;9.270;2022-12-05T15:38:19;5.60;1.00
9323;DHT22;4700;48.822;9.270;2022-12-05T15:41:15;5.50;1.00
9323;DHT22;4700;48.822;9.270;2022-12-05T15:44:04;5.30;1.00
9323;DHT22;4700;48.822;9.270;2022-12-05T15:46:55;5.20;1.00
9323;DHT22;4700;48.822;9.270;2022-12-05T15:49:41;5.20;1.00
9323;DHT22;4700;48.822;9.270;2022-12-05T17:04:49;4.60;1.00
9323;DHT22;4700;48.822;9.270;2022-12-05T18:22:12;5.00;1.00
9323;DHT22;4700;48.822;9.270;2022-12-05T18:24:58;5.10;1.00
9323;DHT22;4700;48.822;9.270;2022-12-05T18:27:46;5.00;1.00
9323;DHT22;4700;48.822;9.270;2022-12-05T18:30:32;5.00;1.00
9323;DHT22;4700;48.822;9.270;2022-12-05T18:33:18;5.00;1.00
9323;DHT22;4700;48.822;9.270;2022-12-05T18:38:40;4.90;1.00
9323;DHT22;4700;48.822;9.270;2022-12-05T18:44:02;4.80;1.00
9323;DHT22;4700;48.822;9.270;2022-12-05T18:46:50;4.70;1.00
9323;DHT22;4700;48.822;9.270;2022-12-05T18:49:36;4.70;1.00
9323;DHT22;4700;48.822;9.270;2022-12-05T18:52:34;4.70;1.00
9323;DHT22;4700;48.822;9.270;2022-12-05T19:00:26;4.60;1.00
9323;DHT22;4700;48.822;9.270;2022-12-05T19:41:47;4.60;1.00
9323;DHT22;4700;48.822;9.270;2022-12-05T19:44:33;4.70;1.00
9323;DHT22;4700;48.822;9.270;2022-12-05T19:47:19;4.70;1.00
9323;DHT22;4700;48.822;9.270;2022-12-05T19:52:35;4.70;1.00
9323;DHT22;4700;48.822;9.270;2022-12-05T19:55:21;4.70;1.00
9323;DHT22;4700;48.822;9.270;2022-12-05T20:03:13;4.70;1.00
9323;DHT22;4700;48.822;9.270;2022-12-05T20:05:59;4.70;1.00
9323;DHT22;4700;48.822;9.270;2022-12-05T20:08:46;4.70;1.00
9323;DHT22;4700;48.822;9.270;2022-12-05T20:11:32;4.70;1.00
9323;DHT22;4700;48.822;9.270;2022-12-05T20:14:18;4.70;1.00
9323;DHT22;4700;48.822;9.270;2022-12-05T20:17:04;4.90;1.00
9323;DHT22;4700;48.822;9.270;2022-12-05T20:24:55;4.80;1.00
9323;DHT22;4700;48.822;9.270;2022-12-05T20:27:41;4.80;1.00
9323;DHT22;4700;48.822;9.270;2022-12-05T20:30:28;4.70;1.00
9323;DHT22;4700;48.822;9.270;2022-12-05T20:33:13;4.60;1.00
9323;DHT22;4700;48.822;9.270;2022-12-05T20:36:00;4.70;1.00
9323;DHT22;4700;48.822;9.270;2022-12-05T20:38:47;4.60;1.00
9323;DHT22;4700;48.822;9.270;2022-12-05T20:41:35;4.50;1.00
9323;DHT22;4700;48.822;9.270;2022-12-05T20:44:21;4.40;1.00
9323;DHT22;4700;48.822;9.270;2022-12-05T20:47:07;4.40;1.00
9323;DHT22;4700;48.822;9.270;2022-12-05T20:49:52;4.40;1.00
9323;DHT22;4700;48.822;9.270;2022-12-05T20:52:38;4.40;1.00
9323;DHT22;4700;48.822;9.270;2022-12-05T20:55:24;4.40;1.00
9323;DHT22;4700;48.822;9.270;2022-12-05T20:58:11;4.40;1.00
9323;DHT22;4700;48.822;9.270;2022-12-05T21:00:57;4.40;1.00
9323;DHT22;4700;48.822;9.270;2022-12-05T21:08:43;4.50;1.00
9323;DHT22;4700;48.822;9.270;2022-12-05T21:16:36;4.40;1.00
9323;DHT22;4700;48.822;9.270;2022-12-05T21:19:23;4.40;1.00
9323;DHT22;4700;48.822;9.270;2022-12-05T21:22:10;4.40;1.00
9323;DHT22;4700;48.822;9.270;2022-12-05T21:24:56;4.50;1.00
9323;DHT22;4700;48.822;9.270;2022-12-05T21:27:42;4.60;1.00
9323;DHT22;4700;48.822;9.270;2022-12-05T21:30:28;4.70;1.00
9323;DHT22;4700;48.822;9.270;2022-12-05T21:33:15;4.80;1.00
9323;DHT22;4700;48.822;9.270;2022-12-05T21:36:04;4.90;1.00
9323;DHT22;4700;48.822;9.270;2022-12-05T21:38:50;4.80;1.00
9323;DHT22;4700;48.822;9.270;2022-12-05T21:41:36;4.80;1.00
9323;DHT22;4700;48.822;9.270;2022-12-05T21:44:21;4.70;1.00
9323;DHT22;4700;48.822;9.270;2022-12-05T21:47:07;4.70;1.00
9323;DHT22;4700;48.822;9.270;2022-12-05T21:49:55;4.60;1.00
9323;DHT22;4700;48.822;9.270;2022-12-05T21:52:42;4.60;1.00
9323;DHT22;4700;48.822;9.270;2022-12-05T21:55:27;4.60;1.00
9323;DHT22;4700;48.822;9.270;2022-12-05T21:58:13;4.70;1.00
9323;DHT22;4700;48.822;9.270;2022-12-05T22:00:59;4.70;1.00
9323;DHT22;4700;48.822;9.270;2022-12-05T22:03:45;4.60;1.00
9323;DHT22;4700;48.822;9.270;2022-12-05T22:06:32;4.60;1.00
9323;DHT22;4700;48.822;9.270;2022-12-05T22:09:18;4.60;1.00
9323;DHT22;4700;48.822;9.270;2022-12-05T22:12:07;4.60;1.00
9323;DHT22;4700;48.822;9.270;2022-12-05T22:14:53;4.60;1.00
9323;DHT22;4700;48.822;9.270;2022-12-05T22:17:38;4.60;1.00
9323;DHT22;4700;48.822;9.270;2022-12-05T22:20:24;4.60;1.00
9323;DHT22;4700;48.822;9.270;2022-12-05T22:23:11;4.50;1.00
9323;DHT22;4700;48.822;9.270;2022-12-05T22:25:58;4.50;1.00
9323;DHT22;4700;48.822;9.270;2022-12-05T22:28:44;4.50;1.00
9323;DHT22;4700;48.822;9.270;2022-12-05T22:31:30;4.50;1.00
9323;DHT22;4700;48.822;9.270;2022-12-05T22:34:16;4.50;1.00
9323;DHT22;4700;48.822;9.270;2022-12-05T22:37:01;4.50;1.00
9323;DHT22;4700;48.822;9.270;2022-12-05T22:39:50;4.40;1.00
9323;DHT22;4700;48.822;9.270;2022-12-05T22:42:35;4.50;1.00
9323;DHT22;4700;48.822;9.270;2022-12-05T22:45:21;4.50;1.00
9323;DHT22;4700;48.822;9.270;2022-12-05T22:48:07;4.60;1.00
9323;DHT22;4700;48.822;9.270;2022-12-05T22:50:54;4.60;1.00
9323;DHT22;4700;48.822;9.270;2022-12-05T22:53:41;4.70;1.00
9323;DHT22;4700;48.822;9.270;2022-12-05T22:56:29;4.80;1.00
9323;DHT22;4700;48.822;9.270;2022-12-05T22:59:15;4.80;1.00
9323;DHT22;4700;48.822;9.270;2022-12-05T23:02:00;4.80;1.00
9323;DHT22;4700;48.822;9.270;2022-12-05T23:04:49;4.70;1.00
9323;DHT22;4700;48.822;9.270;2022-12-05T23:07:35;4.70;1.00
9323;DHT22;4700;48.822;9.270;2022-12-05T23:10:21;4.70;1.00